sensor_id;sensor_type;location;lat;lon;timestamp;P1;durP1;ratioP1;P2;durP2;ratioP2
19482;SDS011;9882;51.166;6.992;2023-03-20T00:02:03;25.52;;;8.23;;
19482;SDS011;9882;51.166;6.992;2023-03-20T00:04:32;21.83;;;7.68;;
19482;SDS011;9882;51.166;6.992;2023-03-20T00:07:02;26.38;;;8.55;;
19482;SDS011;9882;51.166;6.992;2023-03-20T00:09:30;22.10;;;7.70;;
19482;SDS011;9882;51.166;6.992;2023-03-20T00:11:59;22.67;;;8.05;;
19482;SDS011;9882;51.166;6.992;2023-03-20T00:14:28;29.50;;;8.55;;
19482;SDS011;9882;51.166;6.992;2023-03-20T00:16:56;19.13;;;7.07;;
19482;SDS011;9882;51.166;6.992;2023-03-20T00:19:26;27.00;;;8.93;;
19482;SDS011;9882;51.166;6.992;2023-03-20T00:21:56;25.65;;;8.93;;
19482;SDS011;9882;51.166;6.992;2023-03-20T00:24:27;27.08;;;9.52;;
19482;SDS011;9882;51.166;6.992;2023-03-20T00:26:55;27.40;;;9.48;;
19482;SDS011;9882;51.166;6.992;2023-03-20T00:29:24;30.77;;;9.98;;
19482;SDS011;9882;51.166;6.992;2023-03-20T00:31:54;27.25;;;9.68;;
19482;SDS011;9882;51.166;6.992;2023-03-20T00:34:24;27.77;;;9.57;;
19482;SDS011;9882;51.166;6.992;2023-03-20T00:36:54;25.70;;;9.73;;
19482;SDS011;9882;51.166;6.992;2023-03-20T00:39:23;27.27;;;9.77;;
19482;SDS011;9882;51.166;6.992;2023-03-20T00:41:54;31.85;;;11.27;;
19482;SDS011;9882;51.166;6.992;2023-03-20T00:44:25;28.33;;;10.73;;
19482;SDS011;9882;51.166;6.992;2023-03-20T00:47:00;29.27;;;10.35;;
19482;SDS011;9882;51.166;6.992;2023-03-20T00:49:33;28.00;;;10.07;;
19482;SDS011;9882;51.166;6.992;2023-03-20T00:52:05;30.45;;;9.20;;
19482;SDS011;9882;51.166;6.992;2023-03-20T00:54:35;26.23;;;9.95;;
19482;SDS011;9882;51.166;6.992;2023-03-20T00:57:06;28.85;;;10.00;;
19482;SDS011;9882;51.166;6.992;2023-03-20T00:59:40;27.40;;;9.55;;
19482;SDS011;9882;51.166;6.992;2023-03-20T01:02:16;24.63;;;7.90;;
19482;SDS011;9882;51.166;6.992;2023-03-20T01:04:45;23.38;;;8.15;;
19482;SDS011;9882;51.166;6.992;2023-03-20T01:07:15;21.65;;;8.75;;
19482;SDS011;9882;51.166;6.992;2023-03-20T01:09:44;29.02;;;8.95;;
19482;SDS011;9882;51.166;6.992;2023-03-20T01:12:15;23.25;;;7.90;;
19482;SDS011;9882;51.166;6.992;2023-03-20T01:14:44;25.45;;;8.68;;
19482;SDS011;9882;51.166;6.992;2023-03-20T01:17:19;28.20;;;8.45;;
19482;SDS011;9882;51.166;6.992;2023-03-20T01:19:50;27.33;;;8.80;;
19482;SDS011;9882;51.166;6.992;2023-03-20T01:22:19;23.45;;;7.72;;
19482;SDS011;9882;51.166;6.992;2023-03-20T01:24:48;27.50;;;8.52;;
19482;SDS011;9882;51.166;6.992;2023-03-20T01:27:18;24.33;;;8.45;;
19482;SDS011;9882;51.166;6.992;2023-03-20T01:29:48;21.38;;;8.10;;
19482;SDS011;9882;51.166;6.992;2023-03-20T01:32:17;23.27;;;8.25;;
19482;SDS011;9882;51.166;6.992;2023-03-20T01:34:49;25.50;;;8.55;;
19482;SDS011;9882;51.166;6.992;2023-03-20T01:37:22;29.05;;;9.18;;
19482;SDS011;9882;51.166;6.992;2023-03-20T01:39:55;24.88;;;7.80;;
19482;SDS011;9882;51.166;6.992;2023-03-20T01:42:27;27.45;;;8.10;;
19482;SDS011;9882;51.166;6.992;2023-03-20T01:44:56;24.88;;;9.38;;
19482;SDS011;9882;51.166;6.992;2023-03-20T01:47:27;20.52;;;6.80;;
19482;SDS011;9882;51.166;6.992;2023-03-20T01:50:13;25.05;;;8.90;;
19482;SDS011;9882;51.166;6.992;2023-03-20T01:52:55;26.90;;;9.23;;
19482;SDS011;9882;51.166;6.992;2023-03-20T01:55:31;20.95;;;7.65;;
19482;SDS011;9882;51.166;6.992;2023-03-20T01:58:04;24.55;;;8.40;;
19482;SDS011;9882;51.166;6.992;2023-03-20T02:00:35;23.45;;;7.80;;
19482;SDS011;9882;51.166;6.992;2023-03-20T02:03:10;25.92;;;8.10;;
19482;SDS011;9882;51.166;6.992;2023-03-20T02:05:58;28.52;;;8.35;;
19482;SDS011;9882;51.166;6.992;2023-03-20T02:08:48;23.10;;;8.43;;
19482;SDS011;9882;51.166;6.992;2023-03-20T02:11:20;24.23;;;7.97;;
19482;SDS011;9882;51.166;6.992;2023-03-20T02:13:53;26.70;;;8.90;;
19482;SDS011;9882;51.166;6.992;2023-03-20T02:16:29;27.25;;;9.77;;
19482;SDS011;9882;51.166;6.992;2023-03-20T02:19:04;24.48;;;8.27;;
19482;SDS011;9882;51.166;6.992;2023-03-20T02:24:52;29.58;;;9.88;;
19482;SDS011;9882;51.166;6.992;2023-03-20T02:27:45;28.77;;;8.40;;
19482;SDS011;9882;51.166;6.992;2023-03-20T02:30:35;27.48;;;8.85;;
19482;SDS011;9882;51.166;6.992;2023-03-20T02:33:22;28.05;;;10.20;;
19482;SDS011;9882;51.166;6.992;2023-03-20T02:36:14;25.98;;;9.55;;
19482;SDS011;9882;51.166;6.992;2023-03-20T02:39:17;24.13;;;8.52;;
19482;SDS011;9882;51.166;6.992;2023-03-20T02:42:10;26.92;;;9.07;;
19482;SDS011;9882;51.166;6.992;2023-03-20T02:44:49;25.48;;;8.60;;
19482;SDS011;9882;51.166;6.992;2023-03-20T02:47:25;25.75;;;9.48;;
19482;SDS011;9882;51.166;6.992;2023-03-20T02:50:00;26.63;;;9.68;;
19482;SDS011;9882;51.166;6.992;2023-03-20T02:52:42;27.67;;;8.98;;
19482;SDS011;9882;51.166;6.992;2023-03-20T02:55:17;26.48;;;7.93;;
19482;SDS011;9882;51.166;6.992;2023-03-20T02:57:52;29.50;;;9.25;;
19482;SDS011;9882;51.166;6.992;2023-03-20T03:00:27;24.55;;;7.80;;
19482;SDS011;9882;51.166;6.992;2023-03-20T03:03:04;26.45;;;9.27;;
19482;SDS011;9882;51.166;6.992;2023-03-20T03:05:40;32.17;;;9.80;;
19482;SDS011;9882;51.166;6.992;2023-03-20T03:08:12;28.33;;;10.05;;
19482;SDS011;9882;51.166;6.992;2023-03-20T03:10:45;20.00;;;8.55;;
19482;SDS011;9882;51.166;6.992;2023-03-20T03:13:19;25.10;;;8.90;;
19482;SDS011;9882;51.166;6.992;2023-03-20T03:15:52;25.65;;;9.32;;
19482;SDS011;9882;51.166;6.992;2023-03-20T03:18:28;22.33;;;8.13;;
19482;SDS011;9882;51.166;6.992;2023-03-20T03:21:01;24.67;;;8.75;;
19482;SDS011;9882;51.166;6.992;2023-03-20T03:23:38;26.60;;;9.20;;
19482;SDS011;9882;51.166;6.992;2023-03-20T03:26:12;27.85;;;10.48;;
19482;SDS011;9882;51.166;6.992;2023-03-20T03:28:46;25.70;;;8.77;;
19482;SDS011;9882;51.166;6.992;2023-03-20T03:31:18;27.38;;;8.57;;
19482;SDS011;9882;51.166;6.992;2023-03-20T03:33:49;26.00;;;8.90;;
19482;SDS011;9882;51.166;6.992;2023-03-20T03:36:24;21.80;;;8.45;;
19482;SDS011;9882;51.166;6.992;2023-03-20T03:39:06;25.45;;;8.93;;
19482;SDS011;9882;51.166;6.992;2023-03-20T03:41:44;23.52;;;8.95;;
19482;SDS011;9882;51.166;6.992;2023-03-20T03:44:18;24.45;;;9.73;;
19482;SDS011;9882;51.166;6.992;2023-03-20T03:46:53;26.00;;;8.60;;
19482;SDS011;9882;51.166;6.992;2023-03-20T03:49:26;26.10;;;9.40;;
19482;SDS011;9882;51.166;6.992;2023-03-20T03:51:59;25.42;;;8.43;;
19482;SDS011;9882;51.166;6.992;2023-03-20T03:54:31;26.70;;;8.90;;
19482;SDS011;9882;51.166;6.992;2023-03-20T03:57:28;29.52;;;9.10;;
19482;SDS011;9882;51.166;6.992;2023-03-20T04:00:02;25.42;;;9.00;;
19482;SDS011;9882;51.166;6.992;2023-03-20T04:02:39;26.92;;;8.88;;
19482;SDS011;9882;51.166;6.992;2023-03-20T04:05:10;23.95;;;8.48;;
19482;SDS011;9882;51.166;6.992;2023-03-20T04:07:43;24.80;;;9.27;;
19482;SDS011;9882;51.166;6.992;2023-03-20T04:10:12;26.15;;;9.43;;
19482;SDS011;9882;51.166;6.992;2023-03-20T04:12:43;23.38;;;8.55;;
19482;SDS011;9882;51.166;6.992;2023-03-20T04:15:13;26.77;;;9.93;;
19482;SDS011;9882;51.166;6.992;2023-03-20T04:17:43;31.13;;;10.23;;
19482;SDS011;9882;51.166;6.992;2023-03-20T04:20:13;26.75;;;10.02;;
19482;SDS011;9882;51.166;6.992;2023-03-20T04:22:45;24.98;;;9.02;;
19482;SDS011;9882;51.166;6.992;2023-03-20T04:25:16;32.58;;;10.40;;
19482;SDS011;9882;51.166;6.992;2023-03-20T04:27:50;34.67;;;11.45;;
19482;SDS011;9882;51.166;6.992;2023-03-20T04:30:42;24.73;;;9.52;;
19482;SDS011;9882;51.166;6.992;2023-03-20T04:33:24;32.25;;;11.10;;
19482;SDS011;9882;51.166;6.992;2023-03-20T04:36:14;30.05;;;10.60;;
19482;SDS011;9882;51.166;6.992;2023-03-20T04:38:43;32.03;;;11.05;;
19482;SDS011;9882;51.166;6.992;2023-03-20T04:41:12;27.88;;;9.75;;
19482;SDS011;9882;51.166;6.992;2023-03-20T04:43:44;30.50;;;9.57;;
19482;SDS011;9882;51.166;6.992;2023-03-20T04:46:12;32.25;;;10.65;;
19482;SDS011;9882;51.166;6.992;2023-03-20T04:48:41;27.02;;;10.13;;
19482;SDS011;9882;51.166;6.992;2023-03-20T04:51:11;30.20;;;10.35;;
19482;SDS011;9882;51.166;6.992;2023-03-20T04:53:47;29.23;;;10.20;;
19482;SDS011;9882;51.166;6.992;2023-03-20T04:56:16;33.85;;;10.57;;
19482;SDS011;9882;51.166;6.992;2023-03-20T04:58:48;31.83;;;10.80;;
19482;SDS011;9882;51.166;6.992;2023-03-20T05:01:19;26.33;;;9.05;;
19482;SDS011;9882;51.166;6.992;2023-03-20T05:03:49;25.70;;;10.00;;
19482;SDS011;9882;51.166;6.992;2023-03-20T05:06:18;29.27;;;10.43;;
19482;SDS011;9882;51.166;6.992;2023-03-20T05:08:47;31.70;;;10.48;;
19482;SDS011;9882;51.166;6.992;2023-03-20T05:11:17;26.15;;;9.77;;
19482;SDS011;9882;51.166;6.992;2023-03-20T05:14:02;26.73;;;9.23;;
19482;SDS011;9882;51.166;6.992;2023-03-20T05:16:46;28.10;;;10.55;;
19482;SDS011;9882;51.166;6.992;2023-03-20T05:19:26;28.70;;;9.57;;
19482;SDS011;9882;51.166;6.992;2023-03-20T05:22:15;24.02;;;8.60;;
19482;SDS011;9882;51.166;6.992;2023-03-20T05:25:05;27.40;;;9.05;;
19482;SDS011;9882;51.166;6.992;2023-03-20T05:27:53;25.38;;;9.13;;
19482;SDS011;9882;51.166;6.992;2023-03-20T05:30:39;25.20;;;9.55;;
19482;SDS011;9882;51.166;6.992;2023-03-20T05:33:26;24.95;;;8.68;;
19482;SDS011;9882;51.166;6.992;2023-03-20T05:36:14;25.48;;;8.55;;
19482;SDS011;9882;51.166;6.992;2023-03-20T05:38:53;26.30;;;9.27;;
19482;SDS011;9882;51.166;6.992;2023-03-20T05:41:24;27.35;;;10.23;;
19482;SDS011;9882;51.166;6.992;2023-03-20T05:44:25;21.92;;;8.30;;
19482;SDS011;9882;51.166;6.992;2023-03-20T05:47:15;28.48;;;9.93;;
19482;SDS011;9882;51.166;6.992;2023-03-20T05:50:03;24.38;;;8.07;;
19482;SDS011;9882;51.166;6.992;2023-03-20T05:52:45;28.42;;;9.40;;
19482;SDS011;9882;51.166;6.992;2023-03-20T05:55:28;26.27;;;9.18;;
19482;SDS011;9882;51.166;6.992;2023-03-20T05:58:27;26.85;;;9.15;;
19482;SDS011;9882;51.166;6.992;2023-03-20T06:01:07;27.45;;;9.38;;
19482;SDS011;9882;51.166;6.992;2023-03-20T06:03:56;30.50;;;10.18;;
19482;SDS011;9882;51.166;6.992;2023-03-20T06:06:56;33.80;;;11.43;;
19482;SDS011;9882;51.166;6.992;2023-03-20T06:09:26;24.00;;;9.20;;
19482;SDS011;9882;51.166;6.992;2023-03-20T06:11:56;33.22;;;11.73;;
19482;SDS011;9882;51.166;6.992;2023-03-20T06:14:25;31.58;;;11.23;;
19482;SDS011;9882;51.166;6.992;2023-03-20T06:16:59;28.90;;;10.68;;
19482;SDS011;9882;51.166;6.992;2023-03-20T06:19:29;30.70;;;10.07;;
19482;SDS011;9882;51.166;6.992;2023-03-20T06:21:58;29.33;;;10.23;;
19482;SDS011;9882;51.166;6.992;2023-03-20T06:24:26;31.60;;;10.73;;
19482;SDS011;9882;51.166;6.992;2023-03-20T06:26:56;33.65;;;12.07;;
19482;SDS011;9882;51.166;6.992;2023-03-20T06:29:27;31.55;;;10.77;;
19482;SDS011;9882;51.166;6.992;2023-03-20T06:32:07;38.17;;;11.45;;
19482;SDS011;9882;51.166;6.992;2023-03-20T06:34:40;37.15;;;12.02;;
19482;SDS011;9882;51.166;6.992;2023-03-20T06:37:10;31.65;;;10.93;;
19482;SDS011;9882;51.166;6.992;2023-03-20T06:39:43;31.60;;;11.45;;
19482;SDS011;9882;51.166;6.992;2023-03-20T06:42:13;39.60;;;11.63;;
19482;SDS011;9882;51.166;6.992;2023-03-20T06:44:49;32.30;;;10.55;;
19482;SDS011;9882;51.166;6.992;2023-03-20T06:47:53;30.23;;;10.50;;
19482;SDS011;9882;51.166;6.992;2023-03-20T06:50:23;30.88;;;11.85;;
19482;SDS011;9882;51.166;6.992;2023-03-20T06:52:53;29.48;;;10.27;;
19482;SDS011;9882;51.166;6.992;2023-03-20T06:55:41;28.60;;;10.57;;
19482;SDS011;9882;51.166;6.992;2023-03-20T06:58:16;28.80;;;9.77;;
19482;SDS011;9882;51.166;6.992;2023-03-20T07:00:48;31.10;;;9.88;;
19482;SDS011;9882;51.166;6.992;2023-03-20T07:03:19;28.20;;;10.13;;
19482;SDS011;9882;51.166;6.992;2023-03-20T07:05:50;30.33;;;10.23;;
19482;SDS011;9882;51.166;6.992;2023-03-20T07:08:20;31.90;;;10.75;;
19482;SDS011;9882;51.166;6.992;2023-03-20T07:10:49;29.85;;;9.82;;
19482;SDS011;9882;51.166;6.992;2023-03-20T07:13:19;28.33;;;10.48;;
19482;SDS011;9882;51.166;6.992;2023-03-20T07:15:49;28.08;;;10.50;;
19482;SDS011;9882;51.166;6.992;2023-03-20T07:18:33;28.60;;;9.52;;
19482;SDS011;9882;51.166;6.992;2023-03-20T07:21:04;29.42;;;10.32;;
19482;SDS011;9882;51.166;6.992;2023-03-20T07:23:36;30.27;;;9.82;;
19482;SDS011;9882;51.166;6.992;2023-03-20T07:26:04;29.25;;;10.35;;
19482;SDS011;9882;51.166;6.992;2023-03-20T07:28:33;25.83;;;9.00;;
19482;SDS011;9882;51.166;6.992;2023-03-20T07:31:13;24.58;;;8.57;;
19482;SDS011;9882;51.166;6.992;2023-03-20T07:33:52;27.08;;;9.65;;
19482;SDS011;9882;51.166;6.992;2023-03-20T07:36:22;26.60;;;8.90;;
19482;SDS011;9882;51.166;6.992;2023-03-20T07:38:51;24.52;;;8.88;;
19482;SDS011;9882;51.166;6.992;2023-03-20T07:41:20;26.70;;;9.05;;
19482;SDS011;9882;51.166;6.992;2023-03-20T07:43:59;24.83;;;8.50;;
19482;SDS011;9882;51.166;6.992;2023-03-20T07:46:41;23.42;;;8.65;;
19482;SDS011;9882;51.166;6.992;2023-03-20T07:49:11;31.42;;;8.75;;
19482;SDS011;9882;51.166;6.992;2023-03-20T07:51:41;22.65;;;8.07;;
19482;SDS011;9882;51.166;6.992;2023-03-20T07:54:11;25.42;;;8.48;;
19482;SDS011;9882;51.166;6.992;2023-03-20T07:56:41;21.73;;;7.35;;
19482;SDS011;9882;51.166;6.992;2023-03-20T07:59:10;25.63;;;8.30;;
19482;SDS011;9882;51.166;6.992;2023-03-20T08:01:39;22.85;;;7.80;;
19482;SDS011;9882;51.166;6.992;2023-03-20T08:04:08;23.27;;;7.60;;
19482;SDS011;9882;51.166;6.992;2023-03-20T08:06:37;23.23;;;8.02;;
19482;SDS011;9882;51.166;6.992;2023-03-20T08:09:07;20.42;;;7.00;;
19482;SDS011;9882;51.166;6.992;2023-03-20T08:11:36;28.60;;;7.40;;
19482;SDS011;9882;51.166;6.992;2023-03-20T08:14:05;20.35;;;7.82;;
19482;SDS011;9882;51.166;6.992;2023-03-20T08:16:34;22.13;;;7.50;;
19482;SDS011;9882;51.166;6.992;2023-03-20T08:19:03;24.33;;;7.53;;
19482;SDS011;9882;51.166;6.992;2023-03-20T08:21:32;23.08;;;7.70;;
19482;SDS011;9882;51.166;6.992;2023-03-20T08:24:01;26.10;;;7.53;;
19482;SDS011;9882;51.166;6.992;2023-03-20T08:26:31;23.85;;;6.93;;
19482;SDS011;9882;51.166;6.992;2023-03-20T08:28:59;22.35;;;8.60;;
19482;SDS011;9882;51.166;6.992;2023-03-20T08:31:28;24.55;;;7.80;;
19482;SDS011;9882;51.166;6.992;2023-03-20T08:33:57;22.15;;;7.68;;
19482;SDS011;9882;51.166;6.992;2023-03-20T08:36:26;20.30;;;7.35;;
19482;SDS011;9882;51.166;6.992;2023-03-20T08:38:55;19.50;;;7.03;;
19482;SDS011;9882;51.166;6.992;2023-03-20T08:41:23;22.42;;;7.30;;
19482;SDS011;9882;51.166;6.992;2023-03-20T08:43:53;18.52;;;6.88;;
19482;SDS011;9882;51.166;6.992;2023-03-20T08:46:21;22.30;;;8.00;;
19482;SDS011;9882;51.166;6.992;2023-03-20T08:48:50;19.83;;;7.70;;
19482;SDS011;9882;51.166;6.992;2023-03-20T08:51:18;22.83;;;7.45;;
19482;SDS011;9882;51.166;6.992;2023-03-20T08:53:47;19.77;;;7.68;;
19482;SDS011;9882;51.166;6.992;2023-03-20T08:56:15;18.98;;;6.82;;
19482;SDS011;9882;51.166;6.992;2023-03-20T08:58:44;20.92;;;7.32;;
19482;SDS011;9882;51.166;6.992;2023-03-20T09:01:14;20.77;;;7.47;;
19482;SDS011;9882;51.166;6.992;2023-03-20T09:03:42;19.08;;;7.03;;
19482;SDS011;9882;51.166;6.992;2023-03-20T09:06:11;30.38;;;7.95;;
19482;SDS011;9882;51.166;6.992;2023-03-20T09:08:39;23.05;;;7.68;;
19482;SDS011;9882;51.166;6.992;2023-03-20T09:11:08;20.90;;;7.25;;
19482;SDS011;9882;51.166;6.992;2023-03-20T09:13:36;24.95;;;7.32;;
19482;SDS011;9882;51.166;6.992;2023-03-20T09:16:05;19.45;;;6.68;;
19482;SDS011;9882;51.166;6.992;2023-03-20T09:18:35;16.77;;;6.72;;
19482;SDS011;9882;51.166;6.992;2023-03-20T09:21:04;22.45;;;6.85;;
19482;SDS011;9882;51.166;6.992;2023-03-20T09:23:32;19.30;;;6.40;;
19482;SDS011;9882;51.166;6.992;2023-03-20T09:26:01;26.67;;;7.05;;
19482;SDS011;9882;51.166;6.992;2023-03-20T09:28:29;24.42;;;7.50;;
19482;SDS011;9882;51.166;6.992;2023-03-20T09:30:58;23.83;;;6.13;;
19482;SDS011;9882;51.166;6.992;2023-03-20T09:33:27;17.98;;;6.43;;
19482;SDS011;9882;51.166;6.992;2023-03-20T09:35:57;21.95;;;6.50;;
19482;SDS011;9882;51.166;6.992;2023-03-20T09:38:25;20.98;;;6.43;;
19482;SDS011;9882;51.166;6.992;2023-03-20T09:40:55;20.70;;;6.10;;
19482;SDS011;9882;51.166;6.992;2023-03-20T09:43:27;19.52;;;5.90;;
19482;SDS011;9882;51.166;6.992;2023-03-20T09:46:10;20.88;;;6.38;;
19482;SDS011;9882;51.166;6.992;2023-03-20T09:48:48;19.45;;;5.85;;
19482;SDS011;9882;51.166;6.992;2023-03-20T09:51:25;23.73;;;6.00;;
19482;SDS011;9882;51.166;6.992;2023-03-20T09:54:03;17.40;;;6.15;;
19482;SDS011;9882;51.166;6.992;2023-03-20T09:56:37;17.90;;;6.45;;
19482;SDS011;9882;51.166;6.992;2023-03-20T09:59:05;16.52;;;5.95;;
19482;SDS011;9882;51.166;6.992;2023-03-20T10:01:36;15.52;;;5.57;;
19482;SDS011;9882;51.166;6.992;2023-03-20T10:04:10;13.05;;;4.97;;
19482;SDS011;9882;51.166;6.992;2023-03-20T10:06:41;11.77;;;5.05;;
19482;SDS011;9882;51.166;6.992;2023-03-20T10:09:14;15.45;;;5.10;;
19482;SDS011;9882;51.166;6.992;2023-03-20T10:11:54;11.32;;;4.32;;
19482;SDS011;9882;51.166;6.992;2023-03-20T10:14:36;12.05;;;4.90;;
19482;SDS011;9882;51.166;6.992;2023-03-20T10:17:14;14.75;;;4.85;;
19482;SDS011;9882;51.166;6.992;2023-03-20T10:19:55;12.38;;;4.65;;
19482;SDS011;9882;51.166;6.992;2023-03-20T10:22:27;12.27;;;4.85;;
19482;SDS011;9882;51.166;6.992;2023-03-20T10:25:02;16.13;;;4.88;;
19482;SDS011;9882;51.166;6.992;2023-03-20T10:27:36;17.20;;;5.05;;
19482;SDS011;9882;51.166;6.992;2023-03-20T10:30:21;14.82;;;4.63;;
19482;SDS011;9882;51.166;6.992;2023-03-20T10:32:58;16.73;;;4.57;;
19482;SDS011;9882;51.166;6.992;2023-03-20T10:35:38;21.92;;;5.25;;
19482;SDS011;9882;51.166;6.992;2023-03-20T10:38:19;11.25;;;4.38;;
19482;SDS011;9882;51.166;6.992;2023-03-20T10:40:54;10.65;;;3.78;;
19482;SDS011;9882;51.166;6.992;2023-03-20T10:43:24;18.27;;;4.10;;
19482;SDS011;9882;51.166;6.992;2023-03-20T10:45:57;13.32;;;4.53;;
19482;SDS011;9882;51.166;6.992;2023-03-20T10:48:29;13.93;;;4.25;;
19482;SDS011;9882;51.166;6.992;2023-03-20T10:51:01;13.98;;;3.70;;
19482;SDS011;9882;51.166;6.992;2023-03-20T10:53:33;9.00;;;3.55;;
19482;SDS011;9882;51.166;6.992;2023-03-20T10:56:06;17.05;;;4.40;;
19482;SDS011;9882;51.166;6.992;2023-03-20T10:58:39;10.55;;;3.78;;
19482;SDS011;9882;51.166;6.992;2023-03-20T11:01:11;14.00;;;4.43;;
19482;SDS011;9882;51.166;6.992;2023-03-20T11:03:40;16.40;;;4.90;;
19482;SDS011;9882;51.166;6.992;2023-03-20T11:06:11;20.35;;;4.30;;
19482;SDS011;9882;51.166;6.992;2023-03-20T11:08:48;13.15;;;5.13;;
19482;SDS011;9882;51.166;6.992;2023-03-20T11:11:21;14.32;;;4.30;;
19482;SDS011;9882;51.166;6.992;2023-03-20T11:13:51;7.80;;;3.80;;
19482;SDS011;9882;51.166;6.992;2023-03-20T11:16:21;13.82;;;4.40;;
19482;SDS011;9882;51.166;6.992;2023-03-20T11:18:52;18.08;;;4.85;;
19482;SDS011;9882;51.166;6.992;2023-03-20T11:21:21;14.90;;;4.18;;
19482;SDS011;9882;51.166;6.992;2023-03-20T11:23:54;20.58;;;4.22;;
19482;SDS011;9882;51.166;6.992;2023-03-20T11:26:29;14.13;;;4.38;;
19482;SDS011;9882;51.166;6.992;2023-03-20T11:29:04;19.10;;;4.72;;
19482;SDS011;9882;51.166;6.992;2023-03-20T11:31:34;15.27;;;5.18;;
19482;SDS011;9882;51.166;6.992;2023-03-20T11:34:08;17.30;;;5.38;;
19482;SDS011;9882;51.166;6.992;2023-03-20T11:36:38;15.38;;;5.43;;
19482;SDS011;9882;51.166;6.992;2023-03-20T11:39:21;18.25;;;5.85;;
19482;SDS011;9882;51.166;6.992;2023-03-20T11:41:51;22.95;;;5.93;;
19482;SDS011;9882;51.166;6.992;2023-03-20T11:44:25;15.50;;;5.68;;
19482;SDS011;9882;51.166;6.992;2023-03-20T11:46:56;12.90;;;4.75;;
19482;SDS011;9882;51.166;6.992;2023-03-20T11:49:27;16.23;;;6.00;;
19482;SDS011;9882;51.166;6.992;2023-03-20T11:51:58;13.82;;;5.20;;
19482;SDS011;9882;51.166;6.992;2023-03-20T11:54:30;18.65;;;4.90;;
19482;SDS011;9882;51.166;6.992;2023-03-20T11:56:59;11.93;;;4.63;;
19482;SDS011;9882;51.166;6.992;2023-03-20T11:59:29;15.65;;;4.45;;
19482;SDS011;9882;51.166;6.992;2023-03-20T12:01:59;17.52;;;5.40;;
19482;SDS011;9882;51.166;6.992;2023-03-20T12:04:31;14.23;;;4.85;;
19482;SDS011;9882;51.166;6.992;2023-03-20T12:07:03;12.65;;;5.18;;
19482;SDS011;9882;51.166;6.992;2023-03-20T12:10:29;22.48;;;5.82;;
19482;SDS011;9882;51.166;6.992;2023-03-20T12:13:05;14.73;;;4.90;;
19482;SDS011;9882;51.166;6.992;2023-03-20T12:15:41;16.98;;;4.78;;
19482;SDS011;9882;51.166;6.992;2023-03-20T12:18:14;13.40;;;4.55;;
19482;SDS011;9882;51.166;6.992;2023-03-20T12:20:52;11.63;;;4.90;;
19482;SDS011;9882;51.166;6.992;2023-03-20T12:23:30;13.15;;;4.20;;
19482;SDS011;9882;51.166;6.992;2023-03-20T12:26:03;10.38;;;4.10;;
19482;SDS011;9882;51.166;6.992;2023-03-20T12:28:37;12.75;;;4.13;;
19482;SDS011;9882;51.166;6.992;2023-03-20T12:31:15;19.65;;;4.55;;
19482;SDS011;9882;51.166;6.992;2023-03-20T12:33:51;13.65;;;4.15;;
19482;SDS011;9882;51.166;6.992;2023-03-20T12:36:27;16.63;;;4.47;;
19482;SDS011;9882;51.166;6.992;2023-03-20T12:39:00;10.00;;;4.03;;
19482;SDS011;9882;51.166;6.992;2023-03-20T12:41:34;12.77;;;4.57;;
19482;SDS011;9882;51.166;6.992;2023-03-20T12:44:22;17.52;;;4.57;;
19482;SDS011;9882;51.166;6.992;2023-03-20T12:46:59;12.15;;;4.22;;
19482;SDS011;9882;51.166;6.992;2023-03-20T12:49:42;16.85;;;4.43;;
19482;SDS011;9882;51.166;6.992;2023-03-20T12:52:19;10.75;;;4.05;;
19482;SDS011;9882;51.166;6.992;2023-03-20T12:55:00;12.73;;;4.32;;
19482;SDS011;9882;51.166;6.992;2023-03-20T13:00:42;15.32;;;4.35;;
19482;SDS011;9882;51.166;6.992;2023-03-20T13:03:31;14.68;;;4.32;;
19482;SDS011;9882;51.166;6.992;2023-03-20T13:06:12;9.82;;;4.13;;
19482;SDS011;9882;51.166;6.992;2023-03-20T13:08:48;10.93;;;4.30;;
19482;SDS011;9882;51.166;6.992;2023-03-20T13:11:29;10.68;;;4.35;;
19482;SDS011;9882;51.166;6.992;2023-03-20T13:14:09;9.45;;;3.58;;
19482;SDS011;9882;51.166;6.992;2023-03-20T13:16:44;12.38;;;4.18;;
19482;SDS011;9882;51.166;6.992;2023-03-20T13:19:21;9.48;;;4.20;;
19482;SDS011;9882;51.166;6.992;2023-03-20T13:21:55;12.75;;;4.28;;
19482;SDS011;9882;51.166;6.992;2023-03-20T13:24:31;13.00;;;3.90;;
19482;SDS011;9882;51.166;6.992;2023-03-20T13:30:04;13.10;;;3.60;;
19482;SDS011;9882;51.166;6.992;2023-03-20T13:32:44;8.90;;;2.88;;
19482;SDS011;9882;51.166;6.992;2023-03-20T13:35:27;9.18;;;3.20;;
19482;SDS011;9882;51.166;6.992;2023-03-20T13:38:06;13.68;;;3.90;;
19482;SDS011;9882;51.166;6.992;2023-03-20T13:40:39;12.32;;;3.10;;
19482;SDS011;9882;51.166;6.992;2023-03-20T13:43:12;13.90;;;3.72;;
19482;SDS011;9882;51.166;6.992;2023-03-20T13:45:52;7.55;;;3.40;;
19482;SDS011;9882;51.166;6.992;2023-03-20T13:48:28;9.60;;;3.47;;
19482;SDS011;9882;51.166;6.992;2023-03-20T13:51:04;5.18;;;2.72;;
19482;SDS011;9882;51.166;6.992;2023-03-20T13:53:42;14.65;;;3.30;;
19482;SDS011;9882;51.166;6.992;2023-03-20T13:56:21;7.88;;;3.42;;
19482;SDS011;9882;51.166;6.992;2023-03-20T13:59:00;9.40;;;3.67;;
19482;SDS011;9882;51.166;6.992;2023-03-20T14:01:46;12.93;;;3.38;;
19482;SDS011;9882;51.166;6.992;2023-03-20T14:04:22;10.60;;;3.47;;
19482;SDS011;9882;51.166;6.992;2023-03-20T14:06:52;10.40;;;4.10;;
19482;SDS011;9882;51.166;6.992;2023-03-20T14:09:26;13.15;;;4.00;;
19482;SDS011;9882;51.166;6.992;2023-03-20T14:11:58;9.43;;;3.80;;
19482;SDS011;9882;51.166;6.992;2023-03-20T14:14:29;9.80;;;3.47;;
19482;SDS011;9882;51.166;6.992;2023-03-20T14:17:05;8.55;;;3.45;;
19482;SDS011;9882;51.166;6.992;2023-03-20T14:19:39;8.80;;;3.33;;
19482;SDS011;9882;51.166;6.992;2023-03-20T14:22:13;11.75;;;3.95;;
19482;SDS011;9882;51.166;6.992;2023-03-20T14:24:46;12.35;;;3.92;;
19482;SDS011;9882;51.166;6.992;2023-03-20T14:27:22;14.63;;;4.13;;
19482;SDS011;9882;51.166;6.992;2023-03-20T14:30:35;12.75;;;3.67;;
19482;SDS011;9882;51.166;6.992;2023-03-20T14:33:21;14.70;;;3.88;;
19482;SDS011;9882;51.166;6.992;2023-03-20T14:38:45;9.48;;;4.00;;
19482;SDS011;9882;51.166;6.992;2023-03-20T14:41:22;16.27;;;3.88;;
19482;SDS011;9882;51.166;6.992;2023-03-20T14:44:13;17.67;;;4.05;;
19482;SDS011;9882;51.166;6.992;2023-03-20T14:46:50;10.85;;;4.13;;
19482;SDS011;9882;51.166;6.992;2023-03-20T14:49:24;12.75;;;4.03;;
19482;SDS011;9882;51.166;6.992;2023-03-20T14:52:20;12.68;;;3.78;;
19482;SDS011;9882;51.166;6.992;2023-03-20T14:55:13;15.10;;;4.15;;
19482;SDS011;9882;51.166;6.992;2023-03-20T14:58:03;10.52;;;3.88;;
19482;SDS011;9882;51.166;6.992;2023-03-20T15:00:34;14.00;;;4.03;;
19482;SDS011;9882;51.166;6.992;2023-03-20T15:03:12;10.57;;;4.13;;
19482;SDS011;9882;51.166;6.992;2023-03-20T15:05:44;10.43;;;4.28;;
19482;SDS011;9882;51.166;6.992;2023-03-20T15:08:15;7.00;;;3.60;;
19482;SDS011;9882;51.166;6.992;2023-03-20T15:10:49;14.23;;;4.72;;
19482;SDS011;9882;51.166;6.992;2023-03-20T15:13:20;19.05;;;4.32;;
19482;SDS011;9882;51.166;6.992;2023-03-20T15:15:51;15.90;;;4.57;;
19482;SDS011;9882;51.166;6.992;2023-03-20T15:18:21;15.05;;;4.07;;
19482;SDS011;9882;51.166;6.992;2023-03-20T15:20:54;16.70;;;4.57;;
19482;SDS011;9882;51.166;6.992;2023-03-20T15:23:23;15.55;;;4.22;;
19482;SDS011;9882;51.166;6.992;2023-03-20T15:25:52;13.40;;;4.55;;
19482;SDS011;9882;51.166;6.992;2023-03-20T15:28:21;13.73;;;4.10;;
19482;SDS011;9882;51.166;6.992;2023-03-20T15:30:51;16.75;;;3.85;;
19482;SDS011;9882;51.166;6.992;2023-03-20T15:33:23;12.68;;;4.22;;
19482;SDS011;9882;51.166;6.992;2023-03-20T15:35:55;8.95;;;3.88;;
19482;SDS011;9882;51.166;6.992;2023-03-20T15:38:25;9.15;;;3.75;;
19482;SDS011;9882;51.166;6.992;2023-03-20T15:41:02;11.63;;;3.58;;
19482;SDS011;9882;51.166;6.992;2023-03-20T15:43:31;16.20;;;3.63;;